sensor_id;sensor_type;location;lat;lon;timestamp;temperature;humidity
4757;DHT22;2392;52.578;13.426;2022-11-20T00:01:04;1.10;99.90
4757;DHT22;2392;52.578;13.426;2022-11-20T00:03:32;1.10;99.90
4757;DHT22;2392;52.578;13.426;2022-11-20T00:06:00;1.10;99.90
4757;DHT22;2392;52.578;13.426;2022-11-20T00:08:27;1.10;99.90
4757;DHT22;2392;52.578;13.426;2022-11-20T00:10:54;1.10;99.90
4757;DHT22;2392;52.578;13.426;2022-11-20T00:13:21;1.10;99.90
4757;DHT22;2392;52.578;13.426;2022-11-20T00:15:56;1.10;99.90
4757;DHT22;2392;52.578;13.426;2022-11-20T00:18:24;1.10;99.90
4757;DHT22;2392;52.578;13.426;2022-11-20T00:20:51;1.10;99.90
4757;DHT22;2392;52.578;13.426;2022-11-20T00:23:18;1.10;99.90
4757;DHT22;2392;52.578;13.426;2022-11-20T00:25:45;1.10;99.90
4757;DHT22;2392;52.578;13.426;2022-11-20T00:28:12;1.10;99.90
4757;DHT22;2392;52.578;13.426;2022-11-20T00:30:39;1.10;99.90
4757;DHT22;2392;52.578;13.426;2022-11-20T00:33:07;1.10;99.90
4757;DHT22;2392;52.578;13.426;2022-11-20T00:35:34;1.10;99.90
4757;DHT22;2392;52.578;13.426;2022-11-20T00:38:01;1.10;99.90
4757;DHT22;2392;52.578;13.426;2022-11-20T00:40:28;1.10;99.90
4757;DHT22;2392;52.578;13.426;2022-11-20T00:42:55;1.20;99.90
4757;DHT22;2392;52.578;13.426;2022-11-20T00:45:22;1.20;99.90
4757;DHT22;2392;52.578;13.426;2022-11-20T00:47:49;1.10;99.90
4757;DHT22;2392;52.578;13.426;2022-11-20T00:50:17;1.10;99.90
4757;DHT22;2392;52.578;13.426;2022-11-20T00:52:44;1.10;99.90
4757;DHT22;2392;52.578;13.426;2022-11-20T00:55:11;1.20;99.90
4757;DHT22;2392;52.578;13.426;2022-11-20T00:57:38;1.10;99.90
4757;DHT22;2392;52.578;13.426;2022-11-20T01:00:06;1.20;99.90
4757;DHT22;2392;52.578;13.426;2022-11-20T01:02:33;1.20;99.90
4757;DHT22;2392;52.578;13.426;2022-11-20T01:05:00;1.20;99.90
4757;DHT22;2392;52.578;13.426;2022-11-20T01:07:29;1.20;99.90
4757;DHT22;2392;52.578;13.426;2022-11-20T01:09:56;1.20;99.90
4757;DHT22;2392;52.578;13.426;2022-11-20T01:12:23;1.20;99.90
4757;DHT22;2392;52.578;13.426;2022-11-20T01:14:50;1.20;99.90
4757;DHT22;2392;52.578;13.426;2022-11-20T01:17:16;1.20;99.90
4757;DHT22;2392;52.578;13.426;2022-11-20T01:19:43;1.20;99.90
4757;DHT22;2392;52.578;13.426;2022-11-20T01:22:10;1.20;99.90
4757;DHT22;2392;52.578;13.426;2022-11-20T01:24:39;1.20;99.90
4757;DHT22;2392;52.578;13.426;2022-11-20T01:27:06;1.20;99.90
4757;DHT22;2392;52.578;13.426;2022-11-20T01:29:32;1.20;99.90
4757;DHT22;2392;52.578;13.426;2022-11-20T01:31:59;1.20;99.90
4757;DHT22;2392;52.578;13.426;2022-11-20T01:34:26;1.20;99.90
4757;DHT22;2392;52.578;13.426;2022-11-20T01:36:53;1.20;99.90
4757;DHT22;2392;52.578;13.426;2022-11-20T01:39:22;1.30;99.90
4757;DHT22;2392;52.578;13.426;2022-11-20T01:41:52;1.20;99.90
4757;DHT22;2392;52.578;13.426;2022-11-20T01:44:55;1.30;99.90
4757;DHT22;2392;52.578;13.426;2022-11-20T01:47:33;1.30;99.90
4757;DHT22;2392;52.578;13.426;2022-11-20T01:50:05;1.30;99.90
4757;DHT22;2392;52.578;13.426;2022-11-20T01:52:39;1.30;99.90
4757;DHT22;2392;52.578;13.426;2022-11-20T01:55:10;1.20;99.90
4757;DHT22;2392;52.578;13.426;2022-11-20T01:57:40;1.10;99.90
4757;DHT22;2392;52.578;13.426;2022-11-20T02:00:10;1.10;99.90
4757;DHT22;2392;52.578;13.426;2022-11-20T02:02:43;1.00;99.90
4757;DHT22;2392;52.578;13.426;2022-11-20T02:05:16;1.00;99.90
4757;DHT22;2392;52.578;13.426;2022-11-20T02:07:45;0.90;99.90
4757;DHT22;2392;52.578;13.426;2022-11-20T02:10:13;0.90;99.90
4757;DHT22;2392;52.578;13.426;2022-11-20T02:12:41;0.90;99.90
4757;DHT22;2392;52.578;13.426;2022-11-20T02:15:25;0.90;99.90
4757;DHT22;2392;52.578;13.426;2022-11-20T02:17:53;0.90;99.90
4757;DHT22;2392;52.578;13.426;2022-11-20T02:20:20;0.90;99.90
4757;DHT22;2392;52.578;13.426;2022-11-20T02:22:50;0.90;99.90
4757;DHT22;2392;52.578;13.426;2022-11-20T02:25:23;0.90;99.90
4757;DHT22;2392;52.578;13.426;2022-11-20T02:27:50;1.00;99.90
4757;DHT22;2392;52.578;13.426;2022-11-20T02:30:18;1.00;99.90
4757;DHT22;2392;52.578;13.426;2022-11-20T02:32:45;1.00;99.90
4757;DHT22;2392;52.578;13.426;2022-11-20T02:35:39;1.00;99.90
4757;DHT22;2392;52.578;13.426;2022-11-20T02:38:07;1.00;99.90
4757;DHT22;2392;52.578;13.426;2022-11-20T02:40:36;1.00;99.90
4757;DHT22;2392;52.578;13.426;2022-11-20T02:43:03;1.00;99.90
4757;DHT22;2392;52.578;13.426;2022-11-20T02:45:30;1.00;99.90
4757;DHT22;2392;52.578;13.426;2022-11-20T02:47:57;1.00;99.90
4757;DHT22;2392;52.578;13.426;2022-11-20T02:50:24;1.00;99.90
4757;DHT22;2392;52.578;13.426;2022-11-20T02:52:51;1.00;99.90
4757;DHT22;2392;52.578;13.426;2022-11-20T02:55:18;1.00;99.90
4757;DHT22;2392;52.578;13.426;2022-11-20T02:57:46;1.00;99.90
4757;DHT22;2392;52.578;13.426;2022-11-20T03:00:14;1.00;99.90
4757;DHT22;2392;52.578;13.426;2022-11-20T03:02:41;0.90;99.90
4757;DHT22;2392;52.578;13.426;2022-11-20T03:05:08;0.90;99.90
4757;DHT22;2392;52.578;13.426;2022-11-20T03:07:35;0.90;99.90
4757;DHT22;2392;52.578;13.426;2022-11-20T03:10:03;0.90;99.90
4757;DHT22;2392;52.578;13.426;2022-11-20T03:12:30;0.90;99.90
4757;DHT22;2392;52.578;13.426;2022-11-20T03:14:58;1.00;99.90
4757;DHT22;2392;52.578;13.426;2022-11-20T03:17:25;1.00;99.90
4757;DHT22;2392;52.578;13.426;2022-11-20T03:19:52;1.00;99.90
4757;DHT22;2392;52.578;13.426;2022-11-20T03:22:19;1.00;99.90
4757;DHT22;2392;52.578;13.426;2022-11-20T03:24:46;1.00;99.90
4757;DHT22;2392;52.578;13.426;2022-11-20T03:27:13;1.00;99.90
4757;DHT22;2392;52.578;13.426;2022-11-20T03:29:40;1.00;99.90
4757;DHT22;2392;52.578;13.426;2022-11-20T03:32:09;1.00;99.90
4757;DHT22;2392;52.578;13.426;2022-11-20T03:34:36;1.00;99.90
4757;DHT22;2392;52.578;13.426;2022-11-20T03:37:03;1.00;99.90
4757;DHT22;2392;52.578;13.426;2022-11-20T03:39:30;1.10;99.90
4757;DHT22;2392;52.578;13.426;2022-11-20T03:41:57;1.10;99.90
4757;DHT22;2392;52.578;13.426;2022-11-20T03:44:24;1.10;99.90
4757;DHT22;2392;52.578;13.426;2022-11-20T03:46:51;1.10;99.90
4757;DHT22;2392;52.578;13.426;2022-11-20T03:49:19;1.20;99.90
4757;DHT22;2392;52.578;13.426;2022-11-20T03:51:46;1.20;99.90
4757;DHT22;2392;52.578;13.426;2022-11-20T03:54:13;1.10;99.90
4757;DHT22;2392;52.578;13.426;2022-11-20T03:56:40;1.10;99.90
4757;DHT22;2392;52.578;13.426;2022-11-20T03:59:10;1.00;99.90
4757;DHT22;2392;52.578;13.426;2022-11-20T04:01:37;1.00;99.90
4757;DHT22;2392;52.578;13.426;2022-11-20T04:04:04;1.00;99.90
4757;DHT22;2392;52.578;13.426;2022-11-20T04:06:36;1.00;99.90
4757;DHT22;2392;52.578;13.426;2022-11-20T04:09:03;0.90;99.90
4757;DHT22;2392;52.578;13.426;2022-11-20T04:11:32;1.00;99.90
4757;DHT22;2392;52.578;13.426;2022-11-20T04:14:02;1.00;99.90
4757;DHT22;2392;52.578;13.426;2022-11-20T04:16:31;1.00;99.90
4757;DHT22;2392;52.578;13.426;2022-11-20T04:18:59;1.00;99.90
4757;DHT22;2392;52.578;13.426;2022-11-20T04:21:27;1.00;99.90
4757;DHT22;2392;52.578;13.426;2022-11-20T04:23:56;1.00;99.90
4757;DHT22;2392;52.578;13.426;2022-11-20T04:26:24;1.00;99.90
4757;DHT22;2392;52.578;13.426;2022-11-20T04:28:51;1.00;99.90
4757;DHT22;2392;52.578;13.426;2022-11-20T04:31:20;1.00;99.90
4757;DHT22;2392;52.578;13.426;2022-11-20T04:33:48;1.00;99.90
4757;DHT22;2392;52.578;13.426;2022-11-20T04:36:17;0.90;99.90
4757;DHT22;2392;52.578;13.426;2022-11-20T04:38:44;0.90;99.90
4757;DHT22;2392;52.578;13.426;2022-11-20T04:41:16;0.90;99.90
4757;DHT22;2392;52.578;13.426;2022-11-20T04:43:46;0.90;99.90
4757;DHT22;2392;52.578;13.426;2022-11-20T04:46:15;0.80;99.90
4757;DHT22;2392;52.578;13.426;2022-11-20T04:48:42;0.80;99.90
4757;DHT22;2392;52.578;13.426;2022-11-20T04:51:09;0.80;99.90
4757;DHT22;2392;52.578;13.426;2022-11-20T04:53:36;0.80;99.90
4757;DHT22;2392;52.578;13.426;2022-11-20T04:56:04;0.80;99.90
4757;DHT22;2392;52.578;13.426;2022-11-20T04:58:33;0.80;99.90
4757;DHT22;2392;52.578;13.426;2022-11-20T05:01:04;0.80;99.90
4757;DHT22;2392;52.578;13.426;2022-11-20T05:03:31;0.80;99.90
4757;DHT22;2392;52.578;13.426;2022-11-20T05:06:00;0.80;99.90
4757;DHT22;2392;52.578;13.426;2022-11-20T05:08:28;0.80;99.90
4757;DHT22;2392;52.578;13.426;2022-11-20T05:10:59;0.80;99.90
4757;DHT22;2392;52.578;13.426;2022-11-20T05:13:27;0.80;99.90
4757;DHT22;2392;52.578;13.426;2022-11-20T05:15:55;0.80;99.90
4757;DHT22;2392;52.578;13.426;2022-11-20T05:18:22;0.80;99.90
4757;DHT22;2392;52.578;13.426;2022-11-20T05:20:55;0.80;99.90
4757;DHT22;2392;52.578;13.426;2022-11-20T05:23:22;0.90;99.90
4757;DHT22;2392;52.578;13.426;2022-11-20T05:25:52;0.90;99.90
4757;DHT22;2392;52.578;13.426;2022-11-20T05:28:19;0.90;99.90
4757;DHT22;2392;52.578;13.426;2022-11-20T05:30:47;0.90;99.90
4757;DHT22;2392;52.578;13.426;2022-11-20T05:33:15;0.90;99.90
4757;DHT22;2392;52.578;13.426;2022-11-20T05:35:43;0.90;99.90
4757;DHT22;2392;52.578;13.426;2022-11-20T05:38:10;0.90;99.90
4757;DHT22;2392;52.578;13.426;2022-11-20T05:40:37;0.90;99.90
4757;DHT22;2392;52.578;13.426;2022-11-20T05:43:04;0.90;99.90
4757;DHT22;2392;52.578;13.426;2022-11-20T05:45:31;0.90;99.90
4757;DHT22;2392;52.578;13.426;2022-11-20T05:47:58;0.90;99.90
4757;DHT22;2392;52.578;13.426;2022-11-20T05:50:27;0.90;99.90
4757;DHT22;2392;52.578;13.426;2022-11-20T05:52:54;0.90;99.90
4757;DHT22;2392;52.578;13.426;2022-11-20T05:55:21;0.90;99.90
4757;DHT22;2392;52.578;13.426;2022-11-20T05:57:48;0.90;99.90
4757;DHT22;2392;52.578;13.426;2022-11-20T06:00:16;0.90;99.90
4757;DHT22;2392;52.578;13.426;2022-11-20T06:02:43;0.80;99.90
4757;DHT22;2392;52.578;13.426;2022-11-20T06:05:09;0.80;99.90
4757;DHT22;2392;52.578;13.426;2022-11-20T06:07:38;0.80;99.90
4757;DHT22;2392;52.578;13.426;2022-11-20T06:10:05;0.90;99.90
4757;DHT22;2392;52.578;13.426;2022-11-20T06:12:32;0.80;99.90
4757;DHT22;2392;52.578;13.426;2022-11-20T06:14:59;0.90;99.90
4757;DHT22;2392;52.578;13.426;2022-11-20T06:17:26;0.90;99.90
4757;DHT22;2392;52.578;13.426;2022-11-20T06:19:53;0.90;99.90
4757;DHT22;2392;52.578;13.426;2022-11-20T06:22:20;0.90;99.90
4757;DHT22;2392;52.578;13.426;2022-11-20T06:24:48;0.90;99.90
4757;DHT22;2392;52.578;13.426;2022-11-20T06:27:15;1.00;99.90
4757;DHT22;2392;52.578;13.426;2022-11-20T06:29:42;1.00;99.90
4757;DHT22;2392;52.578;13.426;2022-11-20T06:32:09;1.00;99.90
4757;DHT22;2392;52.578;13.426;2022-11-20T06:34:36;1.00;99.90
4757;DHT22;2392;52.578;13.426;2022-11-20T06:37:03;1.00;99.90
4757;DHT22;2392;52.578;13.426;2022-11-20T06:39:30;1.00;99.90
4757;DHT22;2392;52.578;13.426;2022-11-20T06:41:58;1.00;99.90
4757;DHT22;2392;52.578;13.426;2022-11-20T06:44:25;1.00;99.90
4757;DHT22;2392;52.578;13.426;2022-11-20T06:46:52;1.00;99.90
4757;DHT22;2392;52.578;13.426;2022-11-20T06:49:19;1.10;99.90
4757;DHT22;2392;52.578;13.426;2022-11-20T06:51:46;1.10;99.90
4757;DHT22;2392;52.578;13.426;2022-11-20T06:54:13;1.10;99.90
4757;DHT22;2392;52.578;13.426;2022-11-20T06:56:40;1.10;99.90
4757;DHT22;2392;52.578;13.426;2022-11-20T06:59:09;1.10;99.90
4757;DHT22;2392;52.578;13.426;2022-11-20T07:01:36;1.20;99.90
4757;DHT22;2392;52.578;13.426;2022-11-20T07:04:03;1.20;99.90
4757;DHT22;2392;52.578;13.426;2022-11-20T07:06:30;1.20;99.90
4757;DHT22;2392;52.578;13.426;2022-11-20T07:08:57;1.20;99.90
4757;DHT22;2392;52.578;13.426;2022-11-20T07:11:24;1.20;99.90
4757;DHT22;2392;52.578;13.426;2022-11-20T07:13:51;1.20;99.90
4757;DHT22;2392;52.578;13.426;2022-11-20T07:16:20;1.20;99.90
4757;DHT22;2392;52.578;13.426;2022-11-20T07:18:47;1.20;99.90
4757;DHT22;2392;52.578;13.426;2022-11-20T07:21:14;1.20;99.90
4757;DHT22;2392;52.578;13.426;2022-11-20T07:23:41;1.20;99.90
4757;DHT22;2392;52.578;13.426;2022-11-20T07:26:09;1.20;99.90
4757;DHT22;2392;52.578;13.426;2022-11-20T07:28:37;1.20;99.90
4757;DHT22;2392;52.578;13.426;2022-11-20T07:31:05;1.20;99.90
4757;DHT22;2392;52.578;13.426;2022-11-20T07:33:33;1.20;99.90
4757;DHT22;2392;52.578;13.426;2022-11-20T07:36:01;1.20;99.90
4757;DHT22;2392;52.578;13.426;2022-11-20T07:38:28;1.20;99.90
4757;DHT22;2392;52.578;13.426;2022-11-20T07:40:55;1.20;99.90
4757;DHT22;2392;52.578;13.426;2022-11-20T07:43:23;1.20;99.90
4757;DHT22;2392;52.578;13.426;2022-11-20T07:45:51;1.20;99.90
4757;DHT22;2392;52.578;13.426;2022-11-20T07:48:17;1.20;99.90
4757;DHT22;2392;52.578;13.426;2022-11-20T07:50:46;1.20;99.90
4757;DHT22;2392;52.578;13.426;2022-11-20T07:53:13;1.20;99.90
4757;DHT22;2392;52.578;13.426;2022-11-20T07:55:46;1.30;99.90
4757;DHT22;2392;52.578;13.426;2022-11-20T07:58:13;1.30;99.90
4757;DHT22;2392;52.578;13.426;2022-11-20T08:00:40;1.30;99.90
4757;DHT22;2392;52.578;13.426;2022-11-20T08:03:07;1.30;99.90
4757;DHT22;2392;52.578;13.426;2022-11-20T08:05:34;1.30;99.90
4757;DHT22;2392;52.578;13.426;2022-11-20T08:08:03;1.30;99.90
4757;DHT22;2392;52.578;13.426;2022-11-20T08:10:30;1.30;99.90
4757;DHT22;2392;52.578;13.426;2022-11-20T08:12:57;1.30;99.90
4757;DHT22;2392;52.578;13.426;2022-11-20T08:15:47;1.30;99.90
4757;DHT22;2392;52.578;13.426;2022-11-20T08:18:14;1.30;99.90
4757;DHT22;2392;52.578;13.426;2022-11-20T08:20:41;1.30;99.90
4757;DHT22;2392;52.578;13.426;2022-11-20T08:23:09;1.20;99.90
4757;DHT22;2392;52.578;13.426;2022-11-20T08:25:37;1.20;99.90
4757;DHT22;2392;52.578;13.426;2022-11-20T08:28:06;1.20;99.90
4757;DHT22;2392;52.578;13.426;2022-11-20T08:30:34;1.20;99.90
4757;DHT22;2392;52.578;13.426;2022-11-20T08:33:02;1.20;99.90
4757;DHT22;2392;52.578;13.426;2022-11-20T08:35:32;1.10;99.90
4757;DHT22;2392;52.578;13.426;2022-11-20T08:38:02;1.10;99.90
4757;DHT22;2392;52.578;13.426;2022-11-20T08:40:30;1.10;99.90
4757;DHT22;2392;52.578;13.426;2022-11-20T08:42:57;1.10;99.90
4757;DHT22;2392;52.578;13.426;2022-11-20T08:45:24;1.10;99.90
4757;DHT22;2392;52.578;13.426;2022-11-20T08:47:51;1.10;99.90
4757;DHT22;2392;52.578;13.426;2022-11-20T08:50:18;1.20;99.90
4757;DHT22;2392;52.578;13.426;2022-11-20T08:52:45;1.20;99.90
4757;DHT22;2392;52.578;13.426;2022-11-20T08:55:13;1.20;99.90
4757;DHT22;2392;52.578;13.426;2022-11-20T08:57:41;1.20;99.90
4757;DHT22;2392;52.578;13.426;2022-11-20T09:00:10;1.30;99.90
4757;DHT22;2392;52.578;13.426;2022-11-20T09:02:38;1.30;99.90
4757;DHT22;2392;52.578;13.426;2022-11-20T09:05:05;1.30;99.90
4757;DHT22;2392;52.578;13.426;2022-11-20T09:07:32;1.40;99.90
4757;DHT22;2392;52.578;13.426;2022-11-20T09:09:59;1.50;99.90
4757;DHT22;2392;52.578;13.426;2022-11-20T09:12:26;1.50;99.90
4757;DHT22;2392;52.578;13.426;2022-11-20T09:14:55;1.50;99.90
4757;DHT22;2392;52.578;13.426;2022-11-20T09:17:22;1.50;99.90
4757;DHT22;2392;52.578;13.426;2022-11-20T09:19:48;1.50;99.90
4757;DHT22;2392;52.578;13.426;2022-11-20T09:22:16;1.50;99.90
4757;DHT22;2392;52.578;13.426;2022-11-20T09:24:43;1.50;99.90
4757;DHT22;2392;52.578;13.426;2022-11-20T09:27:10;1.50;99.90
4757;DHT22;2392;52.578;13.426;2022-11-20T09:29:37;1.50;99.90
4757;DHT22;2392;52.578;13.426;2022-11-20T09:32:05;1.50;99.90
4757;DHT22;2392;52.578;13.426;2022-11-20T09:34:32;1.50;99.90
4757;DHT22;2392;52.578;13.426;2022-11-20T09:36:59;1.50;99.90
4757;DHT22;2392;52.578;13.426;2022-11-20T09:39:26;1.50;99.90
4757;DHT22;2392;52.578;13.426;2022-11-20T09:42:26;1.60;99.90
4757;DHT22;2392;52.578;13.426;2022-11-20T09:45:09;1.60;99.90
4757;DHT22;2392;52.578;13.426;2022-11-20T09:47:58;1.60;99.90
4757;DHT22;2392;52.578;13.426;2022-11-20T09:50:31;1.60;99.90
4757;DHT22;2392;52.578;13.426;2022-11-20T09:53:13;1.70;99.90
4757;DHT22;2392;52.578;13.426;2022-11-20T09:55:42;1.70;99.90
4757;DHT22;2392;52.578;13.426;2022-11-20T09:58:16;1.70;99.90
4757;DHT22;2392;52.578;13.426;2022-11-20T10:00:47;1.70;99.90
4757;DHT22;2392;52.578;13.426;2022-11-20T10:03:19;1.70;99.90
4757;DHT22;2392;52.578;13.426;2022-11-20T10:05:52;1.80;99.90
4757;DHT22;2392;52.578;13.426;2022-11-20T10:08:23;1.80;99.90
4757;DHT22;2392;52.578;13.426;2022-11-20T10:10:55;1.80;99.90
4757;DHT22;2392;52.578;13.426;2022-11-20T10:13:35;1.90;99.90
4757;DHT22;2392;52.578;13.426;2022-11-20T10:16:19;1.90;99.90
4757;DHT22;2392;52.578;13.426;2022-11-20T10:19:00;2.00;99.90
4757;DHT22;2392;52.578;13.426;2022-11-20T10:21:38;2.00;99.90
4757;DHT22;2392;52.578;13.426;2022-11-20T10:24:45;2.00;99.90
4757;DHT22;2392;52.578;13.426;2022-11-20T10:27:44;2.00;99.90
4757;DHT22;2392;52.578;13.426;2022-11-20T10:30:16;1.90;99.90
4757;DHT22;2392;52.578;13.426;2022-11-20T10:32:47;1.90;99.90
4757;DHT22;2392;52.578;13.426;2022-11-20T10:35:20;1.90;99.90
4757;DHT22;2392;52.578;13.426;2022-11-20T10:37:50;1.90;99.90
4757;DHT22;2392;52.578;13.426;2022-11-20T10:40:23;1.90;99.90
4757;DHT22;2392;52.578;13.426;2022-11-20T10:42:54;2.00;99.90
4757;DHT22;2392;52.578;13.426;2022-11-20T10:45:33;2.00;99.90
4757;DHT22;2392;52.578;13.426;2022-11-20T10:48:10;2.10;99.90
4757;DHT22;2392;52.578;13.426;2022-11-20T10:50:49;2.20;99.90
4757;DHT22;2392;52.578;13.426;2022-11-20T10:53:51;2.30;99.90
4757;DHT22;2392;52.578;13.426;2022-11-20T10:56:24;2.70;99.90
4757;DHT22;2392;52.578;13.426;2022-11-20T11:01:49;3.60;99.90
4757;DHT22;2392;52.578;13.426;2022-11-20T11:04:30;3.70;99.90
4757;DHT22;2392;52.578;13.426;2022-11-20T11:07:07;3.60;99.90
4757;DHT22;2392;52.578;13.426;2022-11-20T11:09:39;3.50;99.90
4757;DHT22;2392;52.578;13.426;2022-11-20T11:12:09;3.30;99.90
4757;DHT22;2392;52.578;13.426;2022-11-20T11:14:43;3.10;99.90
4757;DHT22;2392;52.578;13.426;2022-11-20T11:17:24;3.00;99.90
4757;DHT22;2392;52.578;13.426;2022-11-20T11:20:00;2.80;99.90
4757;DHT22;2392;52.578;13.426;2022-11-20T11:22:30;2.70;99.90
4757;DHT22;2392;52.578;13.426;2022-11-20T11:24:58;2.60;99.90
4757;DHT22;2392;52.578;13.426;2022-11-20T11:27:25;2.50;99.90
4757;DHT22;2392;52.578;13.426;2022-11-20T11:30:03;2.40;99.90
4757;DHT22;2392;52.578;13.426;2022-11-20T11:32:30;2.30;99.90
4757;DHT22;2392;52.578;13.426;2022-11-20T11:35:02;2.30;99.90
4757;DHT22;2392;52.578;13.426;2022-11-20T11:37:34;2.40;99.90
4757;DHT22;2392;52.578;13.426;2022-11-20T11:40:03;2.50;99.90
4757;DHT22;2392;52.578;13.426;2022-11-20T11:42:31;2.50;99.90
4757;DHT22;2392;52.578;13.426;2022-11-20T11:44:59;2.50;99.90
4757;DHT22;2392;52.578;13.426;2022-11-20T11:47:34;2.50;99.90
4757;DHT22;2392;52.578;13.426;2022-11-20T11:50:14;2.50;99.90
4757;DHT22;2392;52.578;13.426;2022-11-20T11:52:46;2.50;99.90
4757;DHT22;2392;52.578;13.426;2022-11-20T11:55:24;2.40;99.90
4757;DHT22;2392;52.578;13.426;2022-11-20T11:57:55;2.30;99.90
4757;DHT22;2392;52.578;13.426;2022-11-20T12:00:26;2.20;99.90
4757;DHT22;2392;52.578;13.426;2022-11-20T12:03:00;2.10;99.90
4757;DHT22;2392;52.578;13.426;2022-11-20T12:05:36;1.90;99.90
4757;DHT22;2392;52.578;13.426;2022-11-20T12:08:13;1.90;99.90
4757;DHT22;2392;52.578;13.426;2022-11-20T12:10:47;1.80;99.90
4757;DHT22;2392;52.578;13.426;2022-11-20T12:16:16;1.80;99.90
4757;DHT22;2392;52.578;13.426;2022-11-20T12:18:45;1.70;99.90
4757;DHT22;2392;52.578;13.426;2022-11-20T12:21:28;1.70;99.90
4757;DHT22;2392;52.578;13.426;2022-11-20T12:24:25;1.80;99.90
4757;DHT22;2392;52.578;13.426;2022-11-20T12:27:05;1.80;99.90
4757;DHT22;2392;52.578;13.426;2022-11-20T12:29:43;1.80;99.90
4757;DHT22;2392;52.578;13.426;2022-11-20T12:35:42;1.90;99.90
4757;DHT22;2392;52.578;13.426;2022-11-20T12:41:22;2.00;99.90
4757;DHT22;2392;52.578;13.426;2022-11-20T12:44:28;2.00;99.90
4757;DHT22;2392;52.578;13.426;2022-11-20T12:47:22;2.10;99.90
4757;DHT22;2392;52.578;13.426;2022-11-20T12:49:56;2.10;99.90
4757;DHT22;2392;52.578;13.426;2022-11-20T12:52:37;2.20;99.90
4757;DHT22;2392;52.578;13.426;2022-11-20T12:55:23;2.30;99.90
4757;DHT22;2392;52.578;13.426;2022-11-20T12:57:57;2.30;99.90
4757;DHT22;2392;52.578;13.426;2022-11-20T13:00:25;2.30;99.90
4757;DHT22;2392;52.578;13.426;2022-11-20T13:06:10;2.30;99.90
4757;DHT22;2392;52.578;13.426;2022-11-20T13:08:40;2.30;99.90
4757;DHT22;2392;52.578;13.426;2022-11-20T13:11:12;2.30;99.90
4757;DHT22;2392;52.578;13.426;2022-11-20T13:13:55;2.40;99.90
4757;DHT22;2392;52.578;13.426;2022-11-20T13:16:31;2.50;99.90
4757;DHT22;2392;52.578;13.426;2022-11-20T13:19:02;2.60;99.90
4757;DHT22;2392;52.578;13.426;2022-11-20T13:21:37;2.60;99.90
4757;DHT22;2392;52.578;13.426;2022-11-20T13:24:05;2.70;99.90
4757;DHT22;2392;52.578;13.426;2022-11-20T13:26:32;2.70;99.90
4757;DHT22;2392;52.578;13.426;2022-11-20T13:29:05;2.60;99.90
4757;DHT22;2392;52.578;13.426;2022-11-20T13:31:35;2.70;99.90
4757;DHT22;2392;52.578;13.426;2022-11-20T13:34:06;2.60;99.90
4757;DHT22;2392;52.578;13.426;2022-11-20T13:36:33;2.60;99.90
4757;DHT22;2392;52.578;13.426;2022-11-20T13:39:02;2.60;99.90
4757;DHT22;2392;52.578;13.426;2022-11-20T13:41:31;2.50;99.90
4757;DHT22;2392;52.578;13.426;2022-11-20T13:44:13;2.30;99.90
4757;DHT22;2392;52.578;13.426;2022-11-20T13:46:42;2.30;99.90
4757;DHT22;2392;52.578;13.426;2022-11-20T13:49:16;2.30;99.90
4757;DHT22;2392;52.578;13.426;2022-11-20T13:51:46;2.30;99.90
4757;DHT22;2392;52.578;13.426;2022-11-20T13:57:16;2.30;99.90
4757;DHT22;2392;52.578;13.426;2022-11-20T13:59:56;2.30;99.90
4757;DHT22;2392;52.578;13.426;2022-11-20T14:02:27;2.30;99.90
4757;DHT22;2392;52.578;13.426;2022-11-20T14:04:57;2.30;99.90
4757;DHT22;2392;52.578;13.426;2022-11-20T14:07:32;2.40;99.90
4757;DHT22;2392;52.578;13.426;2022-11-20T14:10:01;2.30;99.90
4757;DHT22;2392;52.578;13.426;2022-11-20T14:12:31;2.30;99.90
4757;DHT22;2392;52.578;13.426;2022-11-20T14:14:59;2.30;99.90
4757;DHT22;2392;52.578;13.426;2022-11-20T14:17:31;2.20;99.90
4757;DHT22;2392;52.578;13.426;2022-11-20T14:20:01;2.20;99.90
4757;DHT22;2392;52.578;13.426;2022-11-20T14:22:29;2.10;99.90
4757;DHT22;2392;52.578;13.426;2022-11-20T14:25:06;2.10;99.90
4757;DHT22;2392;52.578;13.426;2022-11-20T14:27:34;2.10;99.90
4757;DHT22;2392;52.578;13.426;2022-11-20T14:30:05;2.00;99.90
4757;DHT22;2392;52.578;13.426;2022-11-20T14:32:35;2.00;99.90
4757;DHT22;2392;52.578;13.426;2022-11-20T14:35:07;1.90;99.90
4757;DHT22;2392;52.578;13.426;2022-11-20T14:37:37;1.90;99.90
4757;DHT22;2392;52.578;13.426;2022-11-20T14:40:23;1.90;99.90
4757;DHT22;2392;52.578;13.426;2022-11-20T14:42:51;1.90;99.90
4757;DHT22;2392;52.578;13.426;2022-11-20T14:45:19;1.90;99.90
4757;DHT22;2392;52.578;13.426;2022-11-20T14:47:47;1.90;99.90
4757;DHT22;2392;52.578;13.426;2022-11-20T14:50:18;1.90;99.90
4757;DHT22;2392;52.578;13.426;2022-11-20T14:52:53;1.90;99.90
4757;DHT22;2392;52.578;13.426;2022-11-20T14:55:31;1.90;99.90
4757;DHT22;2392;52.578;13.426;2022-11-20T15:00:27;2.00;99.90
4757;DHT22;2392;52.578;13.426;2022-11-20T15:02:55;2.00;99.90
4757;DHT22;2392;52.578;13.426;2022-11-20T15:05:24;2.00;99.90
4757;DHT22;2392;52.578;13.426;2022-11-20T15:08:05;2.00;99.90
4757;DHT22;2392;52.578;13.426;2022-11-20T15:10:33;2.00;99.90
4757;DHT22;2392;52.578;13.426;2022-11-20T15:13:02;2.00;99.90
4757;DHT22;2392;52.578;13.426;2022-11-20T15:15:35;2.00;99.90
4757;DHT22;2392;52.578;13.426;2022-11-20T15:18:03;1.90;99.90
4757;DHT22;2392;52.578;13.426;2022-11-20T15:20:32;1.90;99.90
4757;DHT22;2392;52.578;13.426;2022-11-20T15:23:00;1.90;99.90
4757;DHT22;2392;52.578;13.426;2022-11-20T15:25:27;1.90;99.90
4757;DHT22;2392;52.578;13.426;2022-11-20T15:27:56;1.90;99.90
4757;DHT22;2392;52.578;13.426;2022-11-20T15:30:24;1.90;99.90
4757;DHT22;2392;52.578;13.426;2022-11-20T15:32:52;1.90;99.90
4757;DHT22;2392;52.578;13.426;2022-11-20T15:35:20;1.90;99.90
4757;DHT22;2392;52.578;13.426;2022-11-20T15:37:47;1.90;99.90
4757;DHT22;2392;52.578;13.426;2022-11-20T15:40:14;1.90;99.90
4757;DHT22;2392;52.578;13.426;2022-11-20T15:42:41;1.90;99.90
4757;DHT22;2392;52.578;13.426;2022-11-20T15:45:30;2.00;99.90
4757;DHT22;2392;52.578;13.426;2022-11-20T15:47:59;2.00;99.90
4757;DHT22;2392;52.578;13.426;2022-11-20T15:50:33;1.90;99.90
4757;DHT22;2392;52.578;13.426;2022-11-20T15:53:01;1.90;99.90
4757;DHT22;2392;52.578;13.426;2022-11-20T15:55:28;1.80;99.90
4757;DHT22;2392;52.578;13.426;2022-11-20T15:57:56;1.70;99.90
4757;DHT22;2392;52.578;13.426;2022-11-20T16:00:23;1.70;99.90
4757;DHT22;2392;52.578;13.426;2022-11-20T16:02:50;1.70;99.90
4757;DHT22;2392;52.578;13.426;2022-11-20T16:05:18;1.60;99.90
4757;DHT22;2392;52.578;13.426;2022-11-20T16:07:49;1.60;99.90
4757;DHT22;2392;52.578;13.426;2022-11-20T16:10:16;1.50;99.90
4757;DHT22;2392;52.578;13.426;2022-11-20T16:12:43;1.50;99.90
4757;DHT22;2392;52.578;13.426;2022-11-20T16:15:28;1.40;99.90
4757;DHT22;2392;52.578;13.426;2022-11-20T16:18:16;1.40;99.90
4757;DHT22;2392;52.578;13.426;2022-11-20T16:20:47;1.40;99.90
4757;DHT22;2392;52.578;13.426;2022-11-20T16:23:15;1.30;99.90
4757;DHT22;2392;52.578;13.426;2022-11-20T16:25:42;1.30;99.90
4757;DHT22;2392;52.578;13.426;2022-11-20T16:28:10;1.30;99.90
4757;DHT22;2392;52.578;13.426;2022-11-20T16:30:37;1.30;99.90
4757;DHT22;2392;52.578;13.426;2022-11-20T16:33:09;1.20;99.90
4757;DHT22;2392;52.578;13.426;2022-11-20T16:35:36;1.20;99.90
4757;DHT22;2392;52.578;13.426;2022-11-20T16:38:04;1.20;99.90
4757;DHT22;2392;52.578;13.426;2022-11-20T16:40:32;1.20;99.90
4757;DHT22;2392;52.578;13.426;2022-11-20T16:43:07;1.20;99.90